Time;durP1;ratioP1;P1;durP2;ratioP2;P2;SDS_P1;SDS_P2;PMS_P1;PMS_P2;Temp;Humidity;BMP_temperature;BMP_pressure;BME280_temperature;BME280_humidity;BME280_pressure;Samples;Min_cycle;Max_cycle;Signal;HPM_P1;HPM_P2
2022/10/22 00:00:17;;;;;;;8.60;5.23;;;13.00;99.90;;;;;;5076273;28;20539;-65
2022/10/22 00:02:47;;;;;;;5.43;4.70;;;12.90;99.90;;;;;;5076495;28;20461;-65
2022/10/22 00:05:14;;;;;;;10.33;5.30;;;12.90;99.90;;;;;;5077227;28;20456;-65
2022/10/22 00:07:44;;;;;;;10.60;5.73;;;12.80;99.90;;;;;;5076522;28;20481;-65
2022/10/22 00:10:11;;;;;;;8.97;5.40;;;12.80;99.90;;;;;;5077228;28;20428;-65
2022/10/22 00:12:41;;;;;;;6.87;4.77;;;12.70;99.90;;;;;;5076832;28;20481;-65
2022/10/22 00:15:09;;;;;;;7.10;4.87;;;12.70;99.90;;;;;;5077130;28;20432;-65
2022/10/22 00:17:39;;;;;;;10.73;5.03;;;12.60;99.90;;;;;;5076743;28;20432;-65
2022/10/22 00:20:10;;;;;;;7.93;5.23;;;12.70;99.90;;;;;;5076671;28;20492;-65
2022/10/22 00:22:37;;;;;;;8.73;5.70;;;12.70;99.90;;;;;;5076483;28;20462;-65
2022/10/22 00:25:06;;;;;;;8.37;5.17;;;12.70;99.90;;;;;;5076918;28;20908;-65
2022/10/22 00:27:37;;;;;;;7.10;5.40;;;12.70;99.90;;;;;;5077256;28;20438;-65
2022/10/22 00:30:04;;;;;;;7.07;5.50;;;12.70;99.90;;;;;;5076280;28;20462;-65
2022/10/22 00:32:34;;;;;;;8.50;5.60;;;12.60;99.90;;;;;;5076685;28;20461;-65
2022/10/22 00:35:01;;;;;;;7.77;6.20;;;12.70;99.90;;;;;;5077102;28;20465;-65
2022/10/22 00:37:29;;;;;;;11.70;6.47;;;12.70;99.90;;;;;;5076764;28;20460;-65
2022/10/22 00:39:57;;;;;;;5.60;5.00;;;12.70;99.90;;;;;;5076356;28;20489;-65
2022/10/22 00:42:29;;;;;;;7.63;5.43;;;12.80;99.90;;;;;;5076379;28;20492;-65
2022/10/22 00:45:28;;;;;;;9.67;6.70;;;12.70;99.90;;;;;;5077146;28;20466;-65
2022/10/22 00:48:00;;;;;;;11.73;5.63;;;12.90;99.90;;;;;;5077695;28;20874;-65
2022/10/22 00:50:31;;;;;;;8.60;5.90;;;13.00;99.90;;;;;;5079909;28;20832;-65
2022/10/22 00:52:59;;;;;;;9.73;5.17;;;13.00;99.90;;;;;;5079178;28;20461;-65
2022/10/22 00:55:31;;;;;;;9.23;5.33;;;12.90;99.90;;;;;;5080180;28;20538;-65
2022/10/22 00:58:01;;;;;;;7.60;6.70;;;12.80;99.90;;;;;;5079723;28;20759;-64
2022/10/22 01:00:28;;;;;;;8.77;5.60;;;12.70;99.90;;;;;;5080133;28;20896;-65
2022/10/22 01:02:57;;;;;;;7.43;5.30;;;12.60;99.90;;;;;;5078983;28;20467;-64
2022/10/22 01:05:28;;;;;;;14.53;6.63;;;12.70;99.90;;;;;;5079092;28;20461;-64
2022/10/22 01:07:58;;;;;;;9.73;5.93;;;12.80;99.90;;;;;;5077924;28;20521;-64
2022/10/22 01:10:42;;;;;;;8.07;5.70;;;12.70;99.90;;;;;;5078594;28;20485;-64
2022/10/22 01:13:22;;;;;;;13.03;6.20;;;12.60;99.90;;;;;;5078401;28;20440;-64
2022/10/22 01:16:06;;;;;;;6.93;4.93;;;12.60;99.90;;;;;;5078738;28;20771;-64
2022/10/22 01:18:43;;;;;;;9.90;5.53;;;12.50;99.90;;;;;;5079141;28;20818;-63
2022/10/22 01:21:21;;;;;;;9.10;6.00;;;12.60;99.90;;;;;;5079477;28;20467;-64
2022/10/22 01:24:15;;;;;;;8.53;5.70;;;12.60;99.90;;;;;;5078176;28;20467;-64
2022/10/22 01:27:00;;;;;;;8.27;5.53;;;12.50;99.90;;;;;;5079369;28;20472;-64
2022/10/22 01:29:33;;;;;;;9.37;5.90;;;12.50;99.90;;;;;;5079505;28;20442;-64
2022/10/22 01:32:07;;;;;;;9.00;5.97;;;12.40;99.90;;;;;;5079054;28;20902;-64
2022/10/22 01:34:35;;;;;;;9.40;6.30;;;12.40;99.90;;;;;;5079478;28;20443;-64
2022/10/22 01:37:03;;;;;;;9.70;6.60;;;12.60;99.90;;;;;;5079340;28;20443;-64
2022/10/22 01:39:31;;;;;;;8.50;6.67;;;12.70;99.90;;;;;;5079364;28;20443;-64
2022/10/22 01:41:59;;;;;;;8.73;6.17;;;12.70;99.90;;;;;;5078931;28;20465;-64
2022/10/22 01:44:29;;;;;;;6.07;5.50;;;12.70;99.90;;;;;;5079194;28;20894;-64
2022/10/22 01:47:07;;;;;;;8.97;6.73;;;12.90;99.90;;;;;;5079336;28;20726;-64
2022/10/22 01:49:52;;;;;;;9.17;6.57;;;12.90;99.90;;;;;;5079174;28;20839;-64
2022/10/22 01:52:30;;;;;;;7.60;5.80;;;12.80;99.90;;;;;;5079094;28;20447;-64
2022/10/22 01:55:14;;;;;;;9.53;6.80;;;13.00;99.90;;;;;;5078416;28;20552;-64
2022/10/22 01:57:49;;;;;;;10.83;7.60;;;13.00;99.90;;;;;;5078675;28;20473;-64
2022/10/22 02:00:19;;;;;;;11.30;7.23;;;13.00;99.90;;;;;;5078106;28;20492;-64
2022/10/22 02:02:55;;;;;;;10.27;5.83;;;13.10;99.90;;;;;;5078891;28;20443;-65
2022/10/22 02:05:30;;;;;;;11.00;6.07;;;13.00;99.90;;;;;;5078859;28;20465;-64
2022/10/22 02:08:03;;;;;;;11.37;7.30;;;13.00;99.90;;;;;;5078432;28;20488;-64
2022/10/22 02:10:32;;;;;;;13.40;5.90;;;13.00;99.90;;;;;;5095226;28;20551;-65
2022/10/22 02:13:01;;;;;;;9.73;6.17;;;12.90;99.90;;;;;;5098907;28;20439;-64
2022/10/22 02:15:35;;;;;;;6.53;5.70;;;12.80;99.90;;;;;;5098606;28;20442;-64
2022/10/22 02:18:05;;;;;;;7.73;6.37;;;12.80;99.90;;;;;;5098616;28;20524;-65
2022/10/22 02:20:33;;;;;;;6.33;5.50;;;12.70;99.90;;;;;;5098543;28;20467;-65
2022/10/22 02:23:01;;;;;;;9.93;6.60;;;12.60;99.90;;;;;;5098734;28;20441;-63
2022/10/22 02:25:32;;;;;;;8.03;5.30;;;12.60;99.90;;;;;;5098730;28;20530;-63
2022/10/22 02:28:08;;;;;;;9.10;6.63;;;12.60;99.90;;;;;;5098412;28;20464;-64
2022/10/22 02:30:41;;;;;;;12.77;7.40;;;12.80;99.90;;;;;;5098523;28;20746;-64
2022/10/22 02:33:15;;;;;;;7.30;6.53;;;12.80;99.90;;;;;;5098751;28;20881;-63
2022/10/22 02:35:43;;;;;;;8.83;6.00;;;12.70;99.90;;;;;;5098250;28;20870;-63
2022/10/22 02:38:11;;;;;;;7.53;6.70;;;12.70;99.90;;;;;;5098152;28;20450;-64
2022/10/22 02:40:39;;;;;;;11.57;6.80;;;12.60;99.90;;;;;;5098580;28;20782;-63
2022/10/22 02:43:07;;;;;;;14.27;7.30;;;12.60;99.90;;;;;;5098713;28;20496;-63
2022/10/22 02:45:36;;;;;;;8.97;6.90;;;12.60;99.90;;;;;;5098694;28;20471;-63
2022/10/22 02:48:06;;;;;;;9.50;6.90;;;12.70;99.90;;;;;;5097837;28;20747;-63
2022/10/22 02:50:34;;;;;;;10.43;7.80;;;12.70;99.90;;;;;;5098085;28;20431;-62
2022/10/22 02:53:01;;;;;;;9.73;6.73;;;12.60;99.90;;;;;;5098277;28;20970;-61
2022/10/22 02:55:29;;;;;;;9.33;6.93;;;12.60;99.90;;;;;;5098188;28;20431;-62
2022/10/22 02:57:56;;;;;;;9.77;6.80;;;12.80;99.90;;;;;;5098394;28;20460;-62
2022/10/22 03:00:23;;;;;;;10.27;6.30;;;12.70;99.90;;;;;;5097696;28;20484;-63
2022/10/22 03:02:52;;;;;;;10.83;7.00;;;12.60;99.90;;;;;;5098384;28;20461;-63
2022/10/22 03:05:21;;;;;;;8.37;6.80;;;12.50;99.90;;;;;;5097043;28;20780;-63
2022/10/22 03:07:52;;;;;;;10.30;7.00;;;12.50;99.90;;;;;;5097059;28;20492;-63
2022/10/22 03:10:19;;;;;;;8.70;7.03;;;12.30;99.90;;;;;;5097686;28;20748;-62
2022/10/22 03:12:47;;;;;;;8.27;7.03;;;12.30;99.90;;;;;;5097137;28;20435;-61
2022/10/22 03:15:14;;;;;;;11.43;8.13;;;12.30;99.90;;;;;;5097891;28;20468;-63
2022/10/22 03:17:44;;;;;;;13.13;6.53;;;12.40;99.90;;;;;;5097250;28;20551;-62
2022/10/22 03:20:13;;;;;;;15.13;7.03;;;12.50;99.90;;;;;;5097284;28;20442;-62
2022/10/22 03:22:42;;;;;;;8.80;7.53;;;12.40;99.90;;;;;;5097471;28;20439;-61
2022/10/22 03:25:12;;;;;;;10.07;7.60;;;12.20;99.90;;;;;;5097358;28;20465;-61
2022/10/22 03:27:41;;;;;;;8.10;6.90;;;12.30;99.90;;;;;;5097196;28;20460;-60
2022/10/22 03:30:09;;;;;;;12.40;7.93;;;12.20;99.90;;;;;;5097476;28;20435;-62
2022/10/22 03:32:36;;;;;;;16.17;8.30;;;12.30;99.90;;;;;;5097149;28;20446;-62
2022/10/22 03:35:04;;;;;;;11.03;7.70;;;12.20;99.90;;;;;;5097370;28;20442;-62
2022/10/22 03:37:34;;;;;;;9.97;6.93;;;12.30;99.90;;;;;;5097139;28;20442;-61
2022/10/22 03:40:04;;;;;;;9.67;7.40;;;12.20;99.90;;;;;;5097302;28;20460;-62
2022/10/22 03:42:31;;;;;;;11.07;7.50;;;12.00;99.90;;;;;;5097236;28;20492;-61
2022/10/22 03:45:01;;;;;;;16.47;8.03;;;12.00;99.90;;;;;;5097125;28;20739;-58
2022/10/22 03:47:31;;;;;;;12.83;8.50;;;12.00;99.90;;;;;;5096245;28;20747;-61
2022/10/22 03:49:58;;;;;;;11.10;7.40;;;12.00;99.90;;;;;;5096194;28;20442;-62
2022/10/22 03:52:26;;;;;;;10.07;7.00;;;12.00;99.90;;;;;;5096665;28;20840;-60
2022/10/22 03:54:55;;;;;;;7.63;6.83;;;11.90;99.90;;;;;;5096949;28;20527;-62
2022/10/22 03:57:22;;;;;;;10.20;7.37;;;12.00;99.90;;;;;;5096961;28;20517;-62
2022/10/22 03:59:50;;;;;;;12.37;8.07;;;12.00;99.90;;;;;;5096915;28;20460;-62
2022/10/22 04:02:17;;;;;;;8.53;7.60;;;12.00;99.90;;;;;;5097383;28;20467;-61
2022/10/22 04:04:44;;;;;;;11.63;8.27;;;12.00;99.90;;;;;;5097418;28;20460;-62
2022/10/22 04:07:11;;;;;;;10.90;8.30;;;12.00;99.90;;;;;;5096799;28;20487;-60
2022/10/22 04:09:40;;;;;;;10.40;8.20;;;12.00;99.90;;;;;;5097408;28;20456;-62
2022/10/22 04:12:10;;;;;;;11.07;7.80;;;12.00;99.90;;;;;;5096414;28;20435;-62
2022/10/22 04:14:39;;;;;;;18.90;9.20;;;12.10;99.90;;;;;;5097205;28;20915;-62
2022/10/22 04:17:06;;;;;;;8.17;7.00;;;12.10;99.90;;;;;;5097328;28;20885;-62
2022/10/22 04:19:34;;;;;;;9.90;8.00;;;12.00;99.90;;;;;;5097191;28;20464;-62
2022/10/22 04:22:01;;;;;;;10.90;8.33;;;12.00;99.90;;;;;;5096646;28;20492;-61
2022/10/22 04:24:31;;;;;;;9.23;8.17;;;12.00;99.90;;;;;;5100507;28;20464;-60
2022/10/22 04:27:01;;;;;;;12.33;10.90;;;12.10;99.90;;;;;;5100836;28;20460;-62
2022/10/22 04:29:29;;;;;;;12.90;9.10;;;12.20;99.90;;;;;;5101109;28;20464;-60
2022/10/22 04:31:57;;;;;;;15.40;9.33;;;12.30;99.90;;;;;;5100610;28;20464;-62
2022/10/22 04:34:27;;;;;;;8.80;8.00;;;12.40;99.90;;;;;;5100842;28;20751;-62
2022/10/22 04:36:57;;;;;;;11.33;9.17;;;12.30;99.90;;;;;;5100740;28;20467;-61
2022/10/22 04:39:25;;;;;;;10.47;8.43;;;12.40;99.90;;;;;;5101292;28;20460;-62
2022/10/22 04:41:52;;;;;;;11.90;9.47;;;12.20;99.90;;;;;;5100106;28;20488;-62
2022/10/22 04:44:19;;;;;;;14.17;8.50;;;12.30;99.90;;;;;;5100326;28;20460;-62
2022/10/22 04:46:50;;;;;;;10.73;9.10;;;12.20;99.90;;;;;;5100440;28;20470;-63
2022/10/22 04:49:21;;;;;;;15.93;9.50;;;12.20;99.90;;;;;;5100572;28;20460;-63
2022/10/22 04:51:48;;;;;;;9.30;8.30;;;12.20;99.90;;;;;;5100062;28;20469;-63
2022/10/22 04:54:15;;;;;;;12.83;8.43;;;12.20;99.90;;;;;;5100289;28;20438;-63
2022/10/22 04:56:43;;;;;;;9.83;8.83;;;12.20;99.90;;;;;;5100388;28;20461;-63
2022/10/22 04:59:12;;;;;;;13.13;9.93;;;12.20;99.90;;;;;;5099917;28;20464;-63
2022/10/22 05:01:44;;;;;;;14.73;10.90;;;12.30;99.90;;;;;;5097888;28;20480;-63
2022/10/22 05:04:16;;;;;;;14.30;9.23;;;12.50;99.90;;;;;;5098654;28;20460;-63
2022/10/22 05:06:44;;;;;;;12.83;9.97;;;12.50;99.90;;;;;;5099064;28;20762;-62
2022/10/22 05:09:13;;;;;;;15.17;10.40;;;12.40;99.90;;;;;;5100119;28;20471;-63
2022/10/22 05:11:44;;;;;;;15.23;9.47;;;12.50;99.90;;;;;;5099130;28;20556;-63
2022/10/22 05:14:12;;;;;;;14.93;9.43;;;12.50;99.90;;;;;;5099424;28;20471;-63
2022/10/22 05:16:39;;;;;;;10.53;9.23;;;12.40;99.90;;;;;;5099954;28;20507;-63
2022/10/22 05:19:09;;;;;;;11.17;9.93;;;12.50;99.90;;;;;;5099993;28;20466;-63
2022/10/22 05:21:38;;;;;;;12.13;10.50;;;12.50;99.90;;;;;;5099876;28;20485;-63
2022/10/22 05:24:06;;;;;;;14.27;9.60;;;12.40;99.90;;;;;;5100066;28;20460;-63
2022/10/22 05:26:35;;;;;;;11.17;9.50;;;12.40;99.90;;;;;;5098038;28;20898;-63
2022/10/22 05:29:02;;;;;;;11.50;9.10;;;12.30;99.90;;;;;;5099403;28;20460;-63
2022/10/22 05:31:29;;;;;;;13.43;10.30;;;12.30;99.90;;;;;;5099450;28;20751;-63
2022/10/22 05:33:56;;;;;;;13.80;11.50;;;12.30;99.90;;;;;;5097318;28;20456;-63
2022/10/22 05:36:23;;;;;;;16.97;10.40;;;12.30;99.90;;;;;;5097627;28;20463;-63
2022/10/22 05:38:52;;;;;;;14.10;10.03;;;12.20;99.90;;;;;;5098372;28;20456;-62
2022/10/22 05:41:22;;;;;;;14.47;10.23;;;12.20;99.90;;;;;;5098059;28;20512;-62
2022/10/22 05:43:50;;;;;;;17.33;11.80;;;12.10;99.90;;;;;;5097805;28;20536;-62
2022/10/22 05:46:19;;;;;;;13.90;12.27;;;12.10;99.90;;;;;;5096854;28;20905;-62
2022/10/22 05:48:50;;;;;;;16.90;11.97;;;12.20;99.90;;;;;;5096488;28;20746;-62
2022/10/22 05:51:17;;;;;;;16.83;11.07;;;12.30;99.90;;;;;;5095487;28;20517;-61
2022/10/22 05:53:44;;;;;;;13.83;11.33;;;12.20;99.90;;;;;;5095041;28;20485;-62
2022/10/22 05:56:19;;;;;;;14.90;11.00;;;12.10;99.90;;;;;;5098023;28;20521;-62
2022/10/22 05:58:46;;;;;;;11.53;10.33;;;12.00;99.90;;;;;;5096822;28;20467;-61
2022/10/22 06:01:16;;;;;;;14.23;11.53;;;12.00;99.90;;;;;;5097707;28;20514;-62
2022/10/22 06:03:44;;;;;;;17.10;10.50;;;12.00;99.90;;;;;;5096238;28;20467;-61
2022/10/22 06:06:18;;;;;;;11.53;10.33;;;12.00;99.90;;;;;;5096244;28;20456;-62
2022/10/22 06:08:46;;;;;;;16.80;11.13;;;12.00;99.90;;;;;;5057145;28;20453;-62
2022/10/22 06:11:16;;;;;;;17.70;11.90;;;12.00;99.90;;;;;;5057455;28;20465;-62
2022/10/22 06:13:43;;;;;;;13.80;11.57;;;12.10;99.90;;;;;;5056791;28;20436;-63
2022/10/22 06:16:11;;;;;;;12.90;11.20;;;12.20;99.90;;;;;;5058409;28;20447;-63
2022/10/22 06:18:38;;;;;;;17.33;11.63;;;12.20;99.90;;;;;;5058116;28;20440;-63
2022/10/22 06:21:10;;;;;;;15.80;11.80;;;12.20;99.90;;;;;;5058432;28;20429;-63
2022/10/22 06:23:37;;;;;;;14.80;10.67;;;12.40;99.90;;;;;;5058915;28;20521;-63
2022/10/22 06:26:05;;;;;;;13.63;11.77;;;12.40;99.90;;;;;;5058066;28;20441;-63
2022/10/22 06:28:37;;;;;;;13.10;11.80;;;12.50;99.90;;;;;;5058354;28;20537;-63
2022/10/22 06:31:07;;;;;;;13.50;11.33;;;12.60;99.90;;;;;;5057274;28;20462;-64
2022/10/22 06:33:40;;;;;;;15.33;11.07;;;12.70;99.90;;;;;;5058057;28;20466;-63
2022/10/22 06:36:10;;;;;;;12.07;10.77;;;12.70;99.90;;;;;;5058229;28;20462;-63
2022/10/22 06:38:37;;;;;;;17.73;11.90;;;12.70;99.90;;;;;;5058102;28;20440;-63
2022/10/22 06:41:08;;;;;;;13.20;11.33;;;12.80;99.90;;;;;;5058325;28;20476;-63
2022/10/22 06:43:36;;;;;;;12.90;11.60;;;12.80;99.90;;;;;;5058108;28;20454;-63
2022/10/22 06:46:07;;;;;;;12.20;10.57;;;12.80;99.90;;;;;;5058207;28;20450;-63
2022/10/22 06:48:39;;;;;;;12.30;11.10;;;12.90;99.90;;;;;;5057894;28;20458;-63
2022/10/22 06:51:08;;;;;;;13.53;11.10;;;13.00;99.90;;;;;;5058058;28;20462;-63
2022/10/22 06:53:36;;;;;;;15.33;11.80;;;13.00;99.90;;;;;;5056600;28;20743;-63
2022/10/22 06:56:06;;;;;;;13.00;10.93;;;13.00;99.90;;;;;;5055931;28;20751;-63
2022/10/22 06:58:33;;;;;;;13.40;11.70;;;13.10;99.90;;;;;;5056414;28;20726;-64
2022/10/22 07:01:06;;;;;;;11.83;10.63;;;13.20;99.90;;;;;;5055720;28;20458;-64
2022/10/22 07:03:37;;;;;;;17.07;9.93;;;13.30;99.90;;;;;;5056713;28;20491;-64
2022/10/22 07:06:12;;;;;;;13.27;9.90;;;13.40;99.90;;;;;;5056863;28;20462;-63
2022/10/22 07:08:40;;;;;;;17.23;10.63;;;13.40;99.90;;;;;;5057533;28;20457;-63
2022/10/22 07:11:10;;;;;;;19.37;15.80;;;13.50;99.90;;;;;;5057950;28;20484;-64
2022/10/22 07:13:38;;;;;;;18.23;14.33;;;13.60;99.90;;;;;;5057634;28;20432;-64
2022/10/22 07:16:07;;;;;;;12.60;10.40;;;13.60;99.90;;;;;;5056598;28;20564;-64
2022/10/22 07:18:36;;;;;;;20.47;9.60;;;13.60;99.90;;;;;;5057305;28;20458;-63
2022/10/22 07:21:04;;;;;;;13.97;10.50;;;13.70;99.90;;;;;;5057840;28;20458;-64
2022/10/22 07:23:34;;;;;;;13.83;10.77;;;13.70;99.90;;;;;;5057402;28;20494;-63
2022/10/22 07:26:02;;;;;;;12.20;9.23;;;13.80;99.90;;;;;;5056805;28;20441;-63
2022/10/22 07:28:31;;;;;;;10.83;8.50;;;13.90;99.90;;;;;;5057219;28;20466;-63
2022/10/22 07:30:59;;;;;;;14.83;9.13;;;14.00;99.90;;;;;;5056987;28;20740;-64
2022/10/22 07:33:32;;;;;;;11.63;8.57;;;14.20;99.90;;;;;;5057737;28;20516;-64
2022/10/22 07:36:00;;;;;;;12.00;8.87;;;14.30;99.90;;;;;;5056860;28;20462;-64
2022/10/22 07:38:30;;;;;;;11.13;8.07;;;14.40;99.90;;;;;;5057005;28;20462;-64
2022/10/22 07:41:01;;;;;;;9.17;7.10;;;14.50;99.90;;;;;;5056763;28;20462;-64
2022/10/22 07:43:31;;;;;;;7.80;7.10;;;14.70;99.90;;;;;;5057217;28;21000;-63
2022/10/22 07:45:59;;;;;;;8.60;6.77;;;14.80;99.90;;;;;;5057034;28;20488;-63
2022/10/22 07:48:27;;;;;;;8.13;6.70;;;14.90;99.90;;;;;;5056669;28;20461;-64
2022/10/22 07:50:55;;;;;;;10.00;7.17;;;15.10;99.90;;;;;;5056811;28;20462;-64
2022/10/22 07:53:23;;;;;;;9.57;5.90;;;15.20;99.90;;;;;;5057053;28;20436;-63
2022/10/22 07:55:51;;;;;;;6.17;5.60;;;15.30;99.90;;;;;;5056869;28;20581;-63
2022/10/22 07:58:19;;;;;;;9.00;5.90;;;15.30;99.90;;;;;;5057677;28;20759;-64
2022/10/22 08:00:47;;;;;;;8.60;5.83;;;15.50;99.90;;;;;;5060031;28;20469;-63
2022/10/22 08:03:15;;;;;;;6.00;4.93;;;15.50;99.90;;;;;;5061016;28;20948;-64
2022/10/22 08:05:44;;;;;;;9.10;6.07;;;15.70;99.90;;;;;;5061066;28;20470;-63
2022/10/22 08:08:13;;;;;;;7.03;6.03;;;15.70;99.90;;;;;;5093801;28;20495;-64
2022/10/22 08:10:41;;;;;;;8.90;6.20;;;15.60;99.90;;;;;;5101237;28;20793;-64
2022/10/22 08:13:09;;;;;;;7.20;5.37;;;15.50;99.90;;;;;;5101521;28;20434;-63
2022/10/22 08:15:39;;;;;;;6.87;5.87;;;15.50;99.90;;;;;;5101585;28;20456;-63
2022/10/22 08:18:06;;;;;;;7.23;5.60;;;15.50;99.90;;;;;;5100921;28;20452;-64
2022/10/22 08:20:33;;;;;;;8.37;5.70;;;15.50;99.90;;;;;;5101165;28;20470;-64
2022/10/22 08:23:02;;;;;;;7.60;4.77;;;15.50;99.90;;;;;;5101093;28;20928;-64
2022/10/22 08:25:30;;;;;;;8.80;5.20;;;15.40;99.90;;;;;;5101275;28;20494;-64
2022/10/22 08:27:57;;;;;;;6.47;5.47;;;15.40;99.90;;;;;;5100595;28;20460;-64
2022/10/22 08:30:28;;;;;;;7.30;5.70;;;15.40;99.90;;;;;;5100816;28;20460;-64
2022/10/22 08:32:56;;;;;;;7.10;5.73;;;15.50;99.90;;;;;;5100767;28;20774;-64
2022/10/22 08:35:23;;;;;;;7.53;4.77;;;15.40;99.90;;;;;;5099842;28;20563;-64
2022/10/22 08:37:53;;;;;;;7.57;4.87;;;15.50;99.90;;;;;;5100240;28;20460;-64
2022/10/22 08:40:26;;;;;;;8.50;5.07;;;15.50;99.90;;;;;;5100942;28;20460;-64
2022/10/22 08:43:24;;;;;;;6.90;4.70;;;15.40;99.90;;;;;;5100305;28;20491;-64
2022/10/22 08:46:00;;;;;;;11.43;4.80;;;15.40;99.90;;;;;;5099346;28;20472;-64
2022/10/22 08:48:44;;;;;;;5.30;4.20;;;15.30;99.90;;;;;;5099722;28;20844;-63
2022/10/22 08:51:15;;;;;;;6.50;4.23;;;15.40;99.90;;;;;;5101044;28;20452;-64
2022/10/22 08:53:53;;;;;;;7.57;4.27;;;15.40;99.90;;;;;;5100354;28;20482;-64
2022/10/22 08:56:24;;;;;;;4.70;4.07;;;15.40;99.90;;;;;;5100561;28;20427;-64
2022/10/22 08:58:57;;;;;;;11.03;4.67;;;15.40;99.90;;;;;;5100382;28;20452;-64
2022/10/22 09:01:33;;;;;;;5.93;4.10;;;15.30;99.90;;;;;;5099680;28;20462;-64
2022/10/22 09:04:06;;;;;;;7.73;4.30;;;15.20;99.90;;;;;;5099634;28;20492;-64
2022/10/22 09:06:36;;;;;;;10.33;4.50;;;15.10;99.90;;;;;;5100095;28;20506;-66
2022/10/22 09:09:18;;;;;;;7.67;4.90;;;15.10;99.90;;;;;;5100119;28;20755;-64
2022/10/22 09:11:49;;;;;;;10.90;4.40;;;15.10;99.90;;;;;;5099938;28;20460;-64
2022/10/22 09:14:18;;;;;;;6.90;3.93;;;15.10;1.00;;;;;;5100200;28;20464;-65
2022/10/22 09:17:10;;;;;;;9.93;3.87;;;15.10;1.00;;;;;;5098489;28;20460;-64
2022/10/22 09:19:47;;;;;;;10.37;4.30;;;15.20;1.00;;;;;;5081329;28;20456;-65
2022/10/22 09:22:25;;;;;;;9.60;3.90;;;15.30;99.90;;;;;;5099543;28;20490;-62
2022/10/22 09:24:58;;;;;;;8.40;3.80;;;15.20;99.90;;;;;;5100098;28;20460;-65
2022/10/22 09:27:30;;;;;;;12.30;4.03;;;15.20;99.90;;;;;;5099941;28;20461;-65
2022/10/22 09:29:58;;;;;;;7.87;3.53;;;15.30;99.90;;;;;;5099900;28;20487;-65
2022/10/22 09:32:26;;;;;;;5.73;3.77;;;15.40;99.90;;;;;;5099376;28;20479;-65
2022/10/22 09:34:57;;;;;;;4.00;3.40;;;15.50;99.90;;;;;;5099637;28;20467;-66
2022/10/22 09:37:27;;;;;;;6.80;4.20;;;15.60;61.30;;;;;;5099965;28;20456;-66
2022/10/22 09:39:57;;;;;;;18.47;4.00;;;15.80;43.60;;;;;;5099744;28;20944;-67
2022/10/22 09:42:25;;;;;;;5.60;3.43;;;15.90;1.00;;;;;;5098939;28;20470;-66
2022/10/22 09:44:57;;;;;;;9.43;3.63;;;16.00;1.00;;;;;;5099038;28;20434;-65
2022/10/22 09:47:33;;;;;;;7.47;4.60;;;16.10;1.00;;;;;;5097726;28;20456;-65
2022/10/22 09:50:20;;;;;;;6.33;3.70;;;16.10;1.00;;;;;;5087457;28;20472;-65
2022/10/22 09:52:57;;;;;;;5.50;2.93;;;16.20;1.00;;;;;;5078581;28;20438;-65
2022/10/22 09:55:28;;;;;;;5.47;3.43;;;16.20;1.00;;;;;;5077540;28;20461;-66
2022/10/22 09:57:56;;;;;;;7.80;4.13;;;16.20;1.00;;;;;;5078865;28;20907;-67
2022/10/22 10:00:26;;;;;;;14.60;4.10;;;16.20;1.00;;;;;;5077010;28;20957;-65
2022/10/22 10:02:58;;;;;;;6.73;3.50;;;16.10;1.00;;;;;;5096347;28;20791;-66
2022/10/22 10:05:28;;;;;;;8.83;3.50;;;16.10;1.00;;;;;;5096842;28;20444;-65
2022/10/22 10:07:55;;;;;;;8.83;3.77;;;16.10;1.00;;;;;;5095825;28;20488;-66
2022/10/22 10:10:32;;;;;;;7.60;4.20;;;16.20;1.00;;;;;;5097731;28;20449;-64
2022/10/22 10:13:07;;;;;;;6.03;3.50;;;16.30;1.00;;;;;;5078567;28;20475;-65
2022/10/22 10:15:44;;;;;;;5.97;4.03;;;16.10;1.00;;;;;;5076373;28;20987;-65
2022/10/22 10:18:25;;;;;;;6.40;3.77;;;16.20;1.00;;;;;;5076646;28;20446;-64
2022/10/22 10:20:57;;;;;;;7.07;3.87;;;16.20;1.00;;;;;;5076850;28;20815;-65
2022/10/22 10:23:31;;;;;;;6.97;3.77;;;16.30;1.00;;;;;;5077522;28;20547;-65
2022/10/22 10:26:09;;;;;;;7.43;3.83;;;16.30;1.00;;;;;;5078501;28;20468;-65
2022/10/22 10:28:57;;;;;;;8.47;3.43;;;16.40;1.00;;;;;;5077752;28;20515;-65
2022/10/22 10:31:37;;;;;;;11.07;4.07;;;16.40;1.00;;;;;;5076732;28;20886;-65
2022/10/22 10:34:18;;;;;;;10.90;3.80;;;16.30;1.00;;;;;;5076909;28;20438;-65
2022/10/22 10:36:56;;;;;;;7.60;3.33;;;16.40;1.00;;;;;;5077539;28;20465;-65
2022/10/22 10:39:31;;;;;;;7.20;3.13;;;16.20;1.00;;;;;;5077839;28;20465;-65
2022/10/22 10:42:10;;;;;;;7.43;3.33;;;16.20;1.00;;;;;;5076994;28;20704;-65
2022/10/22 10:44:48;;;;;;;8.83;3.60;;;16.20;1.00;;;;;;5077581;28;20494;-65
2022/10/22 10:47:42;;;;;;;6.93;3.10;;;16.30;1.00;;;;;;5078254;28;20475;-65
2022/10/22 10:50:23;;;;;;;10.80;2.93;;;16.30;1.00;;;;;;5080464;28;20766;-65
2022/10/22 10:53:01;;;;;;;17.20;3.53;;;16.20;1.00;;;;;;5097894;28;20901;-64
2022/10/22 10:55:36;;;;;;;6.40;2.90;;;16.20;1.00;;;;;;5095973;28;20505;-64
2022/10/22 10:58:17;;;;;;;5.87;2.90;;;16.10;1.00;;;;;;5094879;28;20464;-65
2022/10/22 11:00:50;;;;;;;6.63;3.37;;;16.10;1.00;;;;;;5095682;28;20697;-65
2022/10/22 11:03:42;;;;;;;4.03;2.60;;;16.00;1.00;;;;;;5096183;28;20484;-65
2022/10/22 11:06:14;;;;;;;4.40;3.33;;;16.00;1.00;;;;;;5096199;28;20461;-64
2022/10/22 11:08:48;;;;;;;14.03;3.30;;;16.00;1.00;;;;;;5097765;28;20457;-64
2022/10/22 11:11:21;;;;;;;9.37;4.10;;;16.00;1.00;;;;;;5096745;28;20460;-64
2022/10/22 11:13:53;;;;;;;7.53;3.83;;;16.00;1.00;;;;;;5085169;28;20471;-64
2022/10/22 11:16:27;;;;;;;6.57;2.53;;;16.10;1.00;;;;;;5076824;28;20465;-64
2022/10/22 11:19:03;;;;;;;8.03;3.13;;;16.20;1.00;;;;;;5077408;28;20564;-64
2022/10/22 11:21:36;;;;;;;6.43;2.40;;;16.30;1.00;;;;;;5076668;28;20465;-64
2022/10/22 11:24:17;;;;;;;6.30;2.90;;;16.30;1.00;;;;;;5077001;28;20487;-64
2022/10/22 11:26:49;;;;;;;6.77;2.73;;;16.30;1.00;;;;;;5077560;28;20836;-64
2022/10/22 11:29:23;;;;;;;7.00;2.60;;;16.30;1.00;;;;;;5077467;28;20874;-64
2022/10/22 11:31:53;;;;;;;9.50;2.60;;;16.20;1.00;;;;;;5076427;28;20468;-64
2022/10/22 11:34:26;;;;;;;7.87;3.10;;;16.10;1.00;;;;;;5076679;28;20431;-64
2022/10/22 11:36:57;;;;;;;7.50;3.20;;;16.10;1.00;;;;;;5077381;28;20457;-64
2022/10/22 11:39:35;;;;;;;5.50;2.83;;;16.10;1.00;;;;;;5093404;28;20618;-64
2022/10/22 11:42:11;;;;;;;6.20;2.50;;;16.00;1.00;;;;;;5097031;28;20482;-65
2022/10/22 11:45:00;;;;;;;4.50;2.67;;;16.10;1.00;;;;;;5097003;28;20574;-65
2022/10/22 11:47:33;;;;;;;5.50;2.50;;;16.10;1.00;;;;;;5084825;28;20879;-65
2022/10/22 11:50:20;;;;;;;6.67;2.70;;;16.10;1.00;;;;;;5074340;28;20747;-65
2022/10/22 11:53:00;;;;;;;8.83;3.00;;;16.00;1.00;;;;;;5075890;28;20468;-65
2022/10/22 11:55:47;;;;;;;14.50;3.13;;;16.00;1.00;;;;;;5077217;28;20505;-64
2022/10/22 11:58:37;;;;;;;5.13;2.80;;;15.90;1.00;;;;;;5075813;28;20461;-65
2022/10/22 12:01:22;;;;;;;5.70;3.07;;;15.90;1.00;;;;;;5075978;28;20494;-64
2022/10/22 12:04:12;;;;;;;6.07;2.40;;;15.90;1.00;;;;;;5076762;28;20492;-64
2022/10/22 12:06:55;;;;;;;7.43;2.80;;;15.90;1.00;;;;;;5075852;28;20463;-64
2022/10/22 12:09:29;;;;;;;5.37;2.70;;;15.90;1.00;;;;;;5077031;28;20461;-64
2022/10/22 12:12:03;;;;;;;6.83;2.37;;;16.00;1.00;;;;;;5074702;28;20443;-64
2022/10/22 12:14:40;;;;;;;5.30;2.60;;;15.90;1.00;;;;;;5075425;28;20807;-64
2022/10/22 12:17:12;;;;;;;5.37;2.93;;;15.90;1.00;;;;;;5079888;28;20452;-64
2022/10/22 12:19:41;;;;;;;6.70;2.70;;;15.90;1.00;;;;;;5095436;28;20460;-64
2022/10/22 12:22:19;;;;;;;5.33;2.40;;;15.90;1.00;;;;;;5094493;28;20479;-65
2022/10/22 12:24:51;;;;;;;7.00;3.47;;;16.00;1.00;;;;;;5095236;28;20491;-64
2022/10/22 12:27:19;;;;;;;5.40;3.03;;;16.20;1.00;;;;;;5094588;28;20575;-64
2022/10/22 12:29:47;;;;;;;5.50;2.10;;;16.30;1.00;;;;;;5081832;28;20526;-64
2022/10/22 12:32:17;;;;;;;5.80;2.50;;;16.50;1.00;;;;;;5091094;28;20479;-64
2022/10/22 12:34:50;;;;;;;4.87;2.57;;;16.60;1.00;;;;;;5092108;28;20452;-64
2022/10/22 12:37:19;;;;;;;3.73;2.47;;;16.70;1.00;;;;;;5093120;28;20952;-64
2022/10/22 12:39:47;;;;;;;8.00;2.40;;;16.80;1.00;;;;;;5094650;28;20768;-64
2022/10/22 12:42:15;;;;;;;5.30;2.23;;;16.80;1.00;;;;;;5096022;28;20900;-64
2022/10/22 12:44:49;;;;;;;4.43;3.30;;;16.80;1.00;;;;;;5098547;28;20953;-64
2022/10/22 12:47:18;;;;;;;8.33;2.87;;;16.80;1.00;;;;;;5099290;28;20820;-65
2022/10/22 12:49:50;;;;;;;6.77;2.60;;;16.80;1.00;;;;;;5082744;28;20481;-64
2022/10/22 12:52:21;;;;;;;6.07;2.50;;;16.90;1.00;;;;;;5093525;28;20476;-64
2022/10/22 12:54:53;;;;;;;4.50;2.60;;;17.10;1.00;;;;;;5096762;28;20549;-64
2022/10/22 12:57:23;;;;;;;3.70;2.30;;;17.00;1.00;;;;;;5099864;28;20464;-64
2022/10/22 12:59:51;;;;;;;7.30;2.90;;;17.20;1.00;;;;;;5100070;28;20471;-64
2022/10/22 13:02:21;;;;;;;4.00;2.57;;;17.10;1.00;;;;;;5099659;28;20472;-64
2022/10/22 13:05:26;;;;;;;6.80;2.40;;;17.10;1.00;;;;;;5099418;28;20491;-63